Time;durP1;ratioP1;P1;durP2;ratioP2;P2;SDS_P1;SDS_P2;PMS_P1;PMS_P2;Temp;Humidity;BMP_temperature;BMP_pressure;BME280_temperature;BME280_humidity;BME280_pressure;Samples;Min_cycle;Max_cycle;Signal;HPM_P1;HPM_P2
2022/04/22 00:01:24;;;;;;;;;;;;;;;;;;5033335;28;20115;-70
2022/04/22 00:03:50;;;;;;;21.75;9.45;;;;;;;;;;5033178;28;20326;-68
2022/04/22 00:06:16;;;;;;;20.13;9.80;;;;;;;;;;5033001;28;20045;-69
2022/04/22 00:08:42;;;;;;;19.77;10.02;;;;;;;;;;5032925;28;20495;-68
2022/04/22 00:13:55;;;;;;;20.83;10.55;;;;;;;;;;5033454;28;20053;-68
2022/04/22 00:16:21;;;;;;;21.70;9.15;;;;;;;;;;5033763;28;20057;-69
2022/04/22 00:18:47;;;;;;;18.65;10.45;;;;;;;;;;5032317;28;20454;-69
2022/04/22 00:21:14;;;;;;;19.25;10.18;;;;;;;;;;5035081;28;20107;-68
2022/04/22 00:23:40;;;;;;;21.52;10.35;;;;;;;;;;5035683;28;20049;-70
2022/04/22 00:26:06;;;;;;;23.98;10.82;;;;;;;;;;5033939;28;20143;-67
2022/04/22 00:28:32;;;;;;;20.85;10.85;;;;;;;;;;5033059;28;20188;-68
2022/04/22 00:30:58;;;;;;;21.20;10.50;;;;;;;;;;5032752;28;20199;-70
2022/04/22 00:33:24;;;;;;;21.25;9.90;;;;;;;;;;5034824;28;20050;-70
2022/04/22 00:35:50;;;;;;;27.67;10.15;;;;;;;;;;5036673;28;20055;-66
2022/04/22 00:38:16;;;;;;;19.70;9.70;;;;;;;;;;5019256;28;20446;-69
2022/04/22 00:40:43;;;;;;;19.35;9.55;;;;;;;;;;5019008;28;20077;-68
2022/04/22 00:43:09;;;;;;;;;;;;;;;;;;5035726;28;20055;-69
2022/04/22 00:45:35;;;;;;;22.30;10.05;;;;;;;;;;5036484;28;20007;-70
2022/04/22 00:48:01;;;;;;;18.65;9.50;;;;;;;;;;5036351;28;20116;-68
2022/04/22 00:50:27;;;;;;;19.30;9.80;;;;;;;;;;5019030;28;20049;-70
2022/04/22 00:52:53;;;;;;;20.15;11.02;;;;;;;;;;5036257;28;20041;-69
2022/04/22 00:55:19;;;;;;;18.48;10.05;;;;;;;;;;5035351;28;20046;-72
2022/04/22 00:57:45;;;;;;;20.15;10.27;;;;;;;;;;5036249;28;20053;-72
2022/04/22 01:00:12;;;;;;;17.88;9.77;;;;;;;;;;5034644;28;20049;-68
2022/04/22 01:02:38;;;;;;;21.23;10.55;;;;;;;;;;5036319;28;20052;-70
2022/04/22 01:10:33;;;;;;;22.02;10.73;;;;;;;;;;5035667;28;20045;-70
2022/04/22 01:13:00;;;;;;;19.52;10.00;;;;;;;;;;5035791;28;20461;-69
2022/04/22 01:15:26;;;;;;;18.75;9.95;;;;;;;;;;5036063;28;20049;-69
2022/04/22 01:17:52;;;;;;;21.35;9.90;;;;;;;;;;5035476;28;20440;-65
2022/04/22 01:20:18;;;;;;;20.77;10.27;;;;;;;;;;5035633;28;20045;-68
2022/04/22 01:22:44;;;;;;;19.73;10.05;;;;;;;;;;5036060;28;20151;-70
2022/04/22 01:25:10;;;;;;;19.88;9.70;;;;;;;;;;5036312;28;20060;-69
2022/04/22 01:27:38;;;;;;;19.10;9.65;;;;;;;;;;5036010;28;20049;-69
2022/04/22 01:30:08;;;;;;;20.08;9.93;;;;;;;;;;5035517;28;20452;-69
2022/04/22 01:32:34;;;;;;;21.40;10.20;;;;;;;;;;5035669;28;20469;-68
2022/04/22 01:35:00;;;;;;;19.75;10.48;;;;;;;;;;5035481;28;20132;-69
2022/04/22 01:37:26;;;;;;;18.92;10.07;;;;;;;;;;5035607;28;20053;-69
2022/04/22 01:39:52;;;;;;;20.25;10.48;;;;;;;;;;5035354;28;20044;-66
2022/04/22 01:42:19;;;;;;;16.95;9.98;;;;;;;;;;5035377;28;20046;-67
2022/04/22 01:44:45;;;;;;;22.02;10.77;;;;;;;;;;5034371;28;20049;-70
2022/04/22 01:47:11;;;;;;;20.88;9.88;;;;;;;;;;5034106;28;20068;-69
2022/04/22 01:49:37;;;;;;;19.40;9.85;;;;;;;;;;5035894;28;20433;-71
2022/04/22 01:52:03;;;;;;;16.40;9.38;;;;;;;;;;5035206;28;20176;-69
2022/04/22 01:54:29;;;;;;;16.38;9.23;;;;;;;;;;5035964;28;20053;-69
2022/04/22 01:56:55;;;;;;;19.05;10.13;;;;;;;;;;5035441;28;20111;-63
2022/04/22 01:59:21;;;;;;;20.30;10.00;;;;;;;;;;5035056;28;20052;-66
2022/04/22 02:01:47;;;;;;;18.10;9.82;;;;;;;;;;5035166;28;20045;-68
2022/04/22 02:04:14;;;;;;;19.77;9.25;;;;;;;;;;5033951;28;20397;-68
2022/04/22 02:06:40;;;;;;;23.83;10.13;;;;;;;;;;5017651;28;20057;-68
2022/04/22 02:09:06;;;;;;;18.63;9.60;;;;;;;;;;5035077;28;20481;-66
2022/04/22 02:11:32;;;;;;;17.52;9.93;;;;;;;;;;5034399;28;20049;-67
2022/04/22 02:13:58;;;;;;;17.95;9.88;;;;;;;;;;5018022;28;20517;-68
2022/04/22 02:16:24;;;;;;;21.33;9.73;;;;;;;;;;5035353;28;20099;-67
2022/04/22 02:18:51;;;;;;;21.25;9.80;;;;;;;;;;5035133;28;20163;-70
2022/04/22 02:21:17;;;;;;;18.75;9.30;;;;;;;;;;5033839;28;20041;-67
2022/04/22 02:23:43;;;;;;;18.15;9.90;;;;;;;;;;5035170;28;20118;-67
2022/04/22 02:26:09;;;;;;;16.60;9.98;;;;;;;;;;5034801;28;20154;-67
2022/04/22 02:28:36;;;;;;;21.48;10.20;;;;;;;;;;5034952;28;20041;-68
2022/04/22 02:31:12;;;;;;;18.20;9.40;;;;;;;;;;5034526;28;20053;-66
2022/04/22 02:33:39;;;;;;;19.67;9.90;;;;;;;;;;5035008;28;20057;-69
2022/04/22 02:36:06;;;;;;;20.20;9.48;;;;;;;;;;5034602;28;20076;-68
2022/04/22 02:38:32;;;;;;;20.20;9.70;;;;;;;;;;5034670;28;20478;-68
2022/04/22 02:46:28;;;;;;;19.55;10.65;;;;;;;;;;5034365;28;20401;-67
2022/04/22 02:48:58;;;;;;;18.67;10.45;;;;;;;;;;5035228;28;20050;-67
2022/04/22 02:51:24;;;;;;;19.63;9.32;;;;;;;;;;5033503;28;20128;-70
2022/04/22 02:53:50;;;;;;;;;;;;;;;;;;5034797;28;20049;-71
2022/04/22 02:56:17;;;;;;;17.63;9.57;;;;;;;;;;5034026;28;19927;-71
2022/04/22 02:58:43;;;;;;;19.38;9.77;;;;;;;;;;5033608;28;20049;-70
2022/04/22 03:01:10;;;;;;;17.73;9.55;;;;;;;;;;5034053;28;20099;-69
2022/04/22 03:03:36;;;;;;;16.15;9.63;;;;;;;;;;5034198;28;20056;-69
2022/04/22 03:06:02;;;;;;;19.13;9.48;;;;;;;;;;5034246;28;20092;-69
2022/04/22 03:08:28;;;;;;;;;;;;;;;;;;5034811;28;20110;-68
2022/04/22 03:10:55;;;;;;;20.95;9.93;;;;;;;;;;5032973;28;20499;-69
2022/04/22 03:13:21;;;;;;;16.77;9.15;;;;;;;;;;5034432;28;20397;-68
2022/04/22 03:15:47;;;;;;;19.75;9.13;;;;;;;;;;5032965;28;20375;-70
2022/04/22 03:18:13;;;;;;;19.02;10.02;;;;;;;;;;5034311;28;20045;-69
2022/04/22 03:20:40;;;;;;;17.92;8.98;;;;;;;;;;5016617;28;20045;-67
2022/04/22 03:23:06;;;;;;;19.13;10.00;;;;;;;;;;5033789;28;20049;-67
2022/04/22 03:25:32;;;;;;;20.50;9.70;;;;;;;;;;5034182;28;20056;-67
2022/04/22 03:27:58;;;;;;;18.55;10.02;;;;;;;;;;5033867;28;20052;-70
2022/04/22 03:30:24;;;;;;;;;;;;;;;;;;5034344;28;20053;-68
2022/04/22 03:32:50;;;;;;;17.30;9.25;;;;;;;;;;5034117;28;20269;-66
2022/04/22 03:35:16;;;;;;;18.08;9.60;;;;;;;;;;5032143;28;20497;-68
2022/04/22 03:37:43;;;;;;;17.45;9.85;;;;;;;;;;5033666;28;20056;-69
2022/04/22 03:40:10;;;;;;;18.67;9.18;;;;;;;;;;5033452;28;20041;-65
2022/04/22 03:42:37;;;;;;;17.75;9.55;;;;;;;;;;5033395;28;20046;-68
2022/04/22 03:45:04;;;;;;;20.70;9.70;;;;;;;;;;5033504;28;20085;-66
2022/04/22 03:47:30;;;;;;;19.30;9.30;;;;;;;;;;5015472;28;20561;-68
2022/04/22 03:49:58;;;;;;;20.92;9.93;;;;;;;;;;5033541;28;20052;-68
2022/04/22 03:52:24;;;;;;;19.33;9.57;;;;;;;;;;5033362;28;20052;-67
2022/04/22 03:54:50;;;;;;;21.88;10.75;;;;;;;;;;5033952;28;20041;-69
2022/04/22 04:00:00;;;;;;;19.83;9.82;;;;;;;;;;5037271;28;20072;-68
2022/04/22 04:02:28;;;;;;;16.67;9.35;;;;;;;;;;5033706;28;20049;-70
2022/04/22 04:04:54;;;;;;;15.05;8.98;;;;;;;;;;5033376;28;20085;-69
2022/04/22 04:07:20;;;;;;;15.68;8.90;;;;;;;;;;5035629;28;20313;-68
2022/04/22 04:18:00;;;;;;;18.38;9.05;;;;;;;;;;5038898;28;20067;-68
2022/04/22 04:23:14;;;;;;;16.00;8.98;;;;;;;;;;5039259;28;20045;-68
2022/04/22 04:25:41;;;;;;;16.73;9.25;;;;;;;;;;5038317;28;20093;-69
2022/04/22 04:28:10;;;;;;;16.58;8.88;;;;;;;;;;5037437;28;20053;-68
2022/04/22 04:30:40;;;;;;;14.40;8.50;;;;;;;;;;5037587;28;20065;-65
2022/04/22 04:33:07;;;;;;;17.40;8.98;;;;;;;;;;5038018;28;20049;-65
2022/04/22 04:35:38;;;;;;;18.90;8.98;;;;;;;;;;5038044;28;20045;-67
2022/04/22 04:38:06;;;;;;;14.75;8.05;;;;;;;;;;5038167;28;20085;-68
2022/04/22 04:40:33;;;;;;;16.92;8.90;;;;;;;;;;5037815;28;20099;-69
2022/04/22 04:43:02;;;;;;;18.60;8.35;;;;;;;;;;5036936;28;20374;-68
2022/04/22 04:45:28;;;;;;;18.05;8.40;;;;;;;;;;5036423;28;20049;-67
2022/04/22 04:47:54;;;;;;;15.80;7.95;;;;;;;;;;5036999;28;20409;-70
2022/04/22 04:50:20;;;;;;;17.10;8.48;;;;;;;;;;5037525;28;20474;-70
2022/04/22 04:52:46;;;;;;;18.35;8.02;;;;;;;;;;5037647;28;20430;-69
2022/04/22 04:55:16;;;;;;;13.10;7.70;;;;;;;;;;5037628;28;20374;-68
2022/04/22 04:57:45;;;;;;;15.02;7.68;;;;;;;;;;5020491;28;20097;-69
2022/04/22 05:00:12;;;;;;;18.60;8.15;;;;;;;;;;5037664;28;20049;-67
2022/04/22 05:02:38;;;;;;;14.15;7.40;;;;;;;;;;5037614;28;20445;-69
2022/04/22 05:05:07;;;;;;;;;;;;;;;;;;5038260;28;20072;-69
2022/04/22 05:07:50;;;;;;;13.85;7.32;;;;;;;;;;5038199;28;19920;-71
2022/04/22 05:10:18;;;;;;;13.60;7.82;;;;;;;;;;5037888;28;20098;-69
2022/04/22 05:12:44;;;;;;;14.25;7.40;;;;;;;;;;5037934;28;20057;-67
2022/04/22 05:15:11;;;;;;;15.18;7.18;;;;;;;;;;5038509;28;20080;-69
2022/04/22 05:17:38;;;;;;;14.85;7.63;;;;;;;;;;5037690;28;20049;-68
2022/04/22 05:20:04;;;;;;;16.13;7.20;;;;;;;;;;5033237;28;20053;-69
2022/04/22 05:22:30;;;;;;;14.70;6.90;;;;;;;;;;5033476;28;20103;-68
2022/04/22 05:24:57;;;;;;;12.98;6.32;;;;;;;;;;5034794;28;20046;-69
2022/04/22 05:27:23;;;;;;;13.45;6.47;;;;;;;;;;5034722;28;20440;-68
2022/04/22 05:32:36;;;;;;;14.82;6.53;;;;;;;;;;5034465;28;20046;-70
2022/04/22 05:35:04;;;;;;;12.25;6.22;;;;;;;;;;5034457;28;20052;-63
2022/04/22 05:37:50;;;;;;;12.23;5.95;;;;;;;;;;5034548;28;20045;-68
2022/04/22 05:40:17;;;;;;;14.90;6.13;;;;;;;;;;5034452;28;20049;-65
2022/04/22 05:42:44;;;;;;;12.52;5.97;;;;;;;;;;5000233;28;20460;-68
2022/04/22 05:45:10;;;;;;;14.25;6.28;;;;;;;;;;5032959;28;20107;-64
2022/04/22 05:47:37;;;;;;;18.17;7.97;;;;;;;;;;5034144;28;20045;-64
2022/04/22 05:50:04;;;;;;;13.43;5.85;;;;;;;;;;5034069;28;20045;-66
2022/04/22 05:52:31;;;;;;;17.20;5.55;;;;;;;;;;5033774;28;20058;-65
2022/04/22 05:54:58;;;;;;;14.93;5.95;;;;;;;;;;5033725;28;20045;-67
2022/04/22 05:57:25;;;;;;;14.45;5.72;;;;;;;;;;5033936;28;20068;-64
2022/04/22 05:59:51;;;;;;;14.43;5.28;;;;;;;;;;5034408;28;20184;-69
2022/04/22 06:02:18;;;;;;;13.93;5.80;;;;;;;;;;5033689;28;20045;-67
2022/04/22 06:04:43;;;;;;;;;;;;;;;;;;5033253;28;20045;-70
2022/04/22 06:07:10;;;;;;;11.60;5.68;;;;;;;;;;5033669;28;19943;-74
2022/04/22 06:12:21;;;;;;;12.43;5.82;;;;;;;;;;5033947;28;20061;-68
2022/04/22 06:14:47;;;;;;;;;;;;;;;;;;5032793;28;20053;-70
2022/04/22 06:17:13;;;;;;;14.15;5.22;;;;;;;;;;5033412;28;19921;-67
2022/04/22 06:19:39;;;;;;;;;;;;;;;;;;5032208;28;20501;-72
2022/04/22 06:22:05;;;;;;;13.23;5.32;;;;;;;;;;5033472;28;19924;-67
2022/04/22 06:24:31;;;;;;;14.02;5.22;;;;;;;;;;5033446;28;20108;-68
2022/04/22 06:26:57;;;;;;;13.63;5.00;;;;;;;;;;5032814;28;20049;-71
2022/04/22 06:29:23;;;;;;;13.75;5.25;;;;;;;;;;5032827;28;20529;-65
2022/04/22 06:31:50;;;;;;;11.93;4.95;;;;;;;;;;5033727;28;20054;-71
2022/04/22 06:34:16;;;;;;;13.57;4.90;;;;;;;;;;5033384;28;20049;-68
2022/04/22 06:36:42;;;;;;;10.93;4.55;;;;;;;;;;5033381;28;20053;-67
2022/04/22 06:39:08;;;;;;;11.32;4.80;;;;;;;;;;5034005;28;20132;-72
2022/04/22 06:45:46;;;;;;;12.88;4.97;;;;;;;;;;5033243;28;20053;-72
2022/04/22 06:47:12;;;;;;;11.18;4.70;;;;;;;;;;5032915;28;20045;-73
2022/04/22 06:49:38;;;;;;;11.40;4.85;;;;;;;;;;5031905;28;20108;-73
2022/04/22 06:52:06;;;;;;;13.02;5.03;;;;;;;;;;5033315;28;20099;-71
2022/04/22 06:54:33;;;;;;;12.95;4.88;;;;;;;;;;5032609;28;20053;-68
2022/04/22 06:57:00;;;;;;;12.88;4.63;;;;;;;;;;5032932;28;20045;-77
2022/04/22 06:59:26;;;;;;;13.95;4.97;;;;;;;;;;5031434;28;20046;-68
2022/04/22 07:01:52;;;;;;;;;;;;;;;;;;5033434;28;20049;-72
2022/04/22 07:04:19;;;;;;;10.75;4.20;;;;;;;;;;5031393;28;19929;-68
2022/04/22 07:06:45;;;;;;;57.40;7.15;;;;;;;;;;5031809;28;20049;-74
2022/04/22 07:09:12;;;;;;;12.85;4.95;;;;;;;;;;5032712;28;20088;-67
2022/04/22 07:11:40;;;;;;;12.93;4.90;;;;;;;;;;5032481;28;20045;-69
2022/04/22 07:14:07;;;;;;;13.15;4.80;;;;;;;;;;5032419;28;20045;-69
2022/04/22 07:16:33;;;;;;;12.73;5.07;;;;;;;;;;5032237;28;20393;-67
2022/04/22 07:18:59;;;;;;;14.43;4.93;;;;;;;;;;5031942;28;20132;-68
2022/04/22 07:21:26;;;;;;;13.32;4.53;;;;;;;;;;5032040;28;20128;-74
2022/04/22 07:23:53;;;;;;;12.05;4.65;;;;;;;;;;5032076;28;20068;-65
2022/04/22 07:26:20;;;;;;;12.63;5.00;;;;;;;;;;5032248;28;20053;-65
2022/04/22 07:28:47;;;;;;;15.15;4.80;;;;;;;;;;5032288;28;20053;-69
2022/04/22 07:31:16;;;;;;;14.23;4.70;;;;;;;;;;5032828;28;20057;-72
2022/04/22 07:33:42;;;;;;;11.20;5.10;;;;;;;;;;5033310;28;20053;-66
2022/04/22 07:36:09;;;;;;;17.30;5.05;;;;;;;;;;5031891;28;20433;-69
2022/04/22 07:38:34;;;;;;;;;;;;;;;;;;5032269;28;20045;-67
2022/04/22 07:41:01;;;;;;;12.18;4.65;;;;;;;;;;5031599;28;19925;-71
2022/04/22 07:48:57;;;;;;;11.38;4.25;;;;;;;;;;5032141;28;20143;-71
2022/04/22 07:51:26;;;;;;;13.93;4.50;;;;;;;;;;5031916;28;20081;-67
2022/04/22 07:53:55;;;;;;;13.35;4.68;;;;;;;;;;5031544;28;20052;-61
2022/04/22 07:56:21;;;;;;;15.15;5.03;;;;;;;;;;5031785;28;20057;-65
2022/04/22 07:58:47;;;;;;;12.32;4.43;;;;;;;;;;5030157;28;20049;-68
2022/04/22 08:01:13;;;;;;;12.57;4.85;;;;;;;;;;5031411;28;20076;-67
2022/04/22 08:03:39;;;;;;;12.82;4.88;;;;;;;;;;5030854;28;20045;-64
2022/04/22 08:06:10;;;;;;;;;;;;;;;;;;5032083;28;20103;-66
2022/04/22 08:08:36;;;;;;;14.90;5.13;;;;;;;;;;5031618;28;19921;-65
2022/04/22 08:11:02;;;;;;;;;;;;;;;;;;5030869;28;20159;-64
2022/04/22 08:13:28;;;;;;;14.07;5.10;;;;;;;;;;5030130;28;20023;-65
2022/04/22 08:15:55;;;;;;;12.18;4.68;;;;;;;;;;5030343;28;20056;-71
2022/04/22 08:18:21;;;;;;;;;;;;;;;;;;5031653;28;20412;-65
2022/04/22 08:20:47;;;;;;;11.95;4.68;;;;;;;;;;5031023;28;19925;-69
2022/04/22 08:23:13;;;;;;;14.20;4.60;;;;;;;;;;5031395;28;20041;-67
2022/04/22 08:25:39;;;;;;;12.50;4.55;;;;;;;;;;5031482;28;20045;-63
2022/04/22 08:28:06;;;;;;;13.57;5.00;;;;;;;;;;5030146;28;20041;-65
2022/04/22 08:30:33;;;;;;;10.40;4.72;;;;;;;;;;5029834;28;20511;-65
2022/04/22 08:33:01;;;;;;;14.93;4.38;;;;;;;;;;5031513;28;20056;-65
2022/04/22 08:35:27;;;;;;;14.25;4.70;;;;;;;;;;5032120;28;20049;-63
2022/04/22 08:37:53;;;;;;;15.85;4.55;;;;;;;;;;5031491;28;20050;-65
2022/04/22 08:40:20;;;;;;;11.98;4.60;;;;;;;;;;5032106;28;20045;-66
2022/04/22 08:42:46;;;;;;;16.55;4.93;;;;;;;;;;5031021;28;20397;-66
2022/04/22 08:45:12;;;;;;;;;;;;;;;;;;5031976;28;20501;-70
2022/04/22 08:50:27;;;;;;;12.95;4.68;;;;;;;;;;5031871;28;20108;-68
2022/04/22 08:52:57;;;;;;;10.55;4.38;;;;;;;;;;5032002;28;20049;-68
2022/04/22 08:55:26;;;;;;;11.93;4.30;;;;;;;;;;5035085;28;20089;-66
2022/04/22 08:57:55;;;;;;;14.75;4.50;;;;;;;;;;5034921;28;20428;-69
2022/04/22 09:00:27;;;;;;;10.70;4.22;;;;;;;;;;5034850;28;20042;-68
2022/04/22 09:02:57;;;;;;;11.57;4.18;;;;;;;;;;5034276;28;20091;-66
2022/04/22 09:05:23;;;;;;;13.50;4.53;;;;;;;;;;5035048;28;20052;-67
2022/04/22 09:07:49;;;;;;;;;;;;;;;;;;5035289;28;20504;-66
2022/04/22 09:10:15;;;;;;;13.60;4.22;;;;;;;;;;5034308;28;19921;-69
2022/04/22 09:12:43;;;;;;;12.82;4.68;;;;;;;;;;5033700;28;20048;-67
2022/04/22 09:15:10;;;;;;;13.85;4.22;;;;;;;;;;5033863;28;20104;-70
2022/04/22 09:17:38;;;;;;;11.40;4.47;;;;;;;;;;5036585;28;20124;-70
2022/04/22 09:20:05;;;;;;;13.13;4.68;;;;;;;;;;5035912;28;20371;-73
2022/04/22 09:22:36;;;;;;;11.25;4.35;;;;;;;;;;5035315;28;20053;-70
2022/04/22 09:25:05;;;;;;;17.98;4.53;;;;;;;;;;5033833;28;20049;-71
2022/04/22 09:27:43;;;;;;;14.63;4.65;;;;;;;;;;5034531;28;20071;-66
2022/04/22 09:30:11;;;;;;;18.25;4.32;;;;;;;;;;5034848;28;20060;-73
2022/04/22 09:32:39;;;;;;;14.95;4.47;;;;;;;;;;5034521;28;20088;-70
2022/04/22 09:35:12;;;;;;;10.68;4.40;;;;;;;;;;5033581;28;20497;-66
2022/04/22 09:43:22;;;;;;;12.30;4.05;;;;;;;;;;5034414;28;20123;-69
2022/04/22 09:45:51;;;;;;;11.18;4.18;;;;;;;;;;5033157;28;20045;-68
2022/04/22 09:48:18;;;;;;;11.98;4.78;;;;;;;;;;5034134;28;20045;-67
2022/04/22 09:50:45;;;;;;;12.02;4.70;;;;;;;;;;5034178;28;20524;-69
2022/04/22 09:53:12;;;;;;;12.68;4.40;;;;;;;;;;5032237;28;20136;-68
2022/04/22 09:55:54;;;;;;;11.80;4.30;;;;;;;;;;5034061;28;20049;-73
2022/04/22 09:58:24;;;;;;;12.18;4.60;;;;;;;;;;5033359;28;20041;-66
2022/04/22 10:01:00;;;;;;;13.00;4.60;;;;;;;;;;5034508;28;20132;-67
2022/04/22 10:03:34;;;;;;;16.67;4.55;;;;;;;;;;5029706;28;20054;-70
2022/04/22 10:06:01;;;;;;;14.23;4.97;;;;;;;;;;5032637;28;20062;-71
2022/04/22 10:08:30;;;;;;;13.00;4.90;;;;;;;;;;5033666;28;20128;-73
2022/04/22 10:11:00;;;;;;;12.27;4.65;;;;;;;;;;5033631;28;20106;-71
2022/04/22 10:13:40;;;;;;;10.55;4.53;;;;;;;;;;5034659;28;20096;-66
2022/04/22 10:16:09;;;;;;;12.65;4.60;;;;;;;;;;5033950;28;20370;-65
2022/04/22 10:18:35;;;;;;;11.27;4.80;;;;;;;;;;5033873;28;20079;-69
2022/04/22 10:21:01;;;;;;;;;;;;;;;;;;5033570;28;20129;-65
2022/04/22 10:23:27;;;;;;;11.63;4.95;;;;;;;;;;5033515;28;20015;-68
2022/04/22 10:25:53;;;;;;;;;;;;;;;;;;5033964;28;20056;-69
2022/04/22 10:28:19;;;;;;;12.43;4.80;;;;;;;;;;5033704;28;19921;-65
2022/04/22 10:30:46;;;;;;;15.13;5.43;;;;;;;;;;5033238;28;20061;-68
2022/04/22 10:33:12;;;;;;;15.40;4.80;;;;;;;;;;5033406;28;20136;-64
2022/04/22 10:35:40;;;;;;;12.00;5.15;;;;;;;;;;5033652;28;20133;-68
2022/04/22 10:38:06;;;;;;;12.75;4.65;;;;;;;;;;5033409;28;20054;-68
2022/04/22 10:40:32;;;;;;;14.10;4.88;;;;;;;;;;5034020;28;20045;-72
2022/04/22 10:43:00;;;;;;;15.65;4.60;;;;;;;;;;5033712;28;20147;-67
2022/04/22 10:48:24;;;;;;;13.30;4.90;;;;;;;;;;5032445;28;20049;-67
2022/04/22 10:51:00;;;;;;;13.02;5.10;;;;;;;;;;5033906;28;20050;-68
2022/04/22 10:53:33;;;;;;;12.18;5.22;;;;;;;;;;5031934;28;20088;-67
2022/04/22 10:56:18;;;;;;;22.45;5.90;;;;;;;;;;5033686;28;20049;-67
2022/04/22 10:58:44;;;;;;;18.25;5.70;;;;;;;;;;5033217;28;20189;-71
2022/04/22 11:01:29;;;;;;;15.13;5.05;;;;;;;;;;5033195;28;20053;-65
2022/04/22 11:03:56;;;;;;;12.40;5.13;;;;;;;;;;5033402;28;20527;-69
2022/04/22 11:06:22;;;;;;;12.45;5.20;;;;;;;;;;5032934;28;20107;-74
2022/04/22 11:08:59;;;;;;;10.02;4.90;;;;;;;;;;5032959;28;20481;-67
2022/04/22 11:11:26;;;;;;;12.13;5.25;;;;;;;;;;5033377;28;20042;-66
2022/04/22 11:13:52;;;;;;;12.48;4.90;;;;;;;;;;5032926;28;20124;-71
2022/04/22 11:16:18;;;;;;;;;;;;;;;;;;5033483;28;20045;-68
2022/04/22 11:18:45;;;;;;;13.48;5.45;;;;;;;;;;5031502;28;19979;-71
2022/04/22 11:21:15;;;;;;;17.42;8.20;;;;;;;;;;5031147;28;20173;-73
2022/04/22 11:23:45;;;;;;;12.95;5.72;;;;;;;;;;5032688;28;20084;-72
2022/04/22 11:26:20;;;;;;;14.15;5.72;;;;;;;;;;5033631;28;20245;-71
2022/04/22 11:28:46;;;;;;;18.33;5.38;;;;;;;;;;5031380;28;20064;-72
2022/04/22 11:31:13;;;;;;;16.77;5.68;;;;;;;;;;5031201;28;20057;-74
2022/04/22 11:34:01;;;;;;;14.70;6.18;;;;;;;;;;5032658;28;20081;-73
2022/04/22 11:36:27;;;;;;;11.60;5.45;;;;;;;;;;5032693;28;20107;-73
2022/04/22 11:38:54;;;;;;;12.43;5.55;;;;;;;;;;5032284;28;20041;-69
2022/04/22 11:41:21;;;;;;;12.75;5.13;;;;;;;;;;5031984;28;20115;-75
2022/04/22 11:43:48;;;;;;;13.98;5.80;;;;;;;;;;5032750;28;20398;-76
2022/04/22 11:46:15;;;;;;;13.43;5.50;;;;;;;;;;5032075;28;20112;-71
2022/04/22 11:48:49;;;;;;;16.02;4.90;;;;;;;;;;5032155;28;20095;-70
2022/04/22 11:51:16;;;;;;;14.27;5.55;;;;;;;;;;5032317;28;20100;-68
2022/04/22 11:53:46;;;;;;;26.05;6.95;;;;;;;;;;5032241;28;20140;-69
2022/04/22 11:56:16;;;;;;;12.93;6.00;;;;;;;;;;5032173;28;20042;-71
2022/04/22 11:58:42;;;;;;;12.13;5.95;;;;;;;;;;5032474;28;20401;-72
2022/04/22 12:06:39;;;;;;;14.38;5.47;;;;;;;;;;5032906;28;20137;-68
2022/04/22 12:09:07;;;;;;;12.85;5.60;;;;;;;;;;5032622;28;20385;-71
2022/04/22 12:11:41;;;;;;;16.30;5.70;;;;;;;;;;5030610;28;20175;-70
2022/04/22 12:14:07;;;;;;;15.75;6.00;;;;;;;;;;5030973;28;20172;-67
2022/04/22 12:16:33;;;;;;;;;;;;;;;;;;5032968;28;20430;-69
2022/04/22 12:19:03;;;;;;;20.65;5.20;;;;;;;;;;5032328;28;19928;-72
2022/04/22 12:21:33;;;;;;;13.35;6.07;;;;;;;;;;5032408;28;20053;-70
2022/04/22 12:24:00;;;;;;;14.02;5.40;;;;;;;;;;5033071;28;20054;-68
2022/04/22 12:26:27;;;;;;;15.93;6.03;;;;;;;;;;5032271;28;20373;-69
2022/04/22 12:28:56;;;;;;;15.23;6.05;;;;;;;;;;5034616;28;20128;-65
2022/04/22 12:31:23;;;;;;;16.90;6.55;;;;;;;;;;5036051;28;20561;-66
2022/04/22 12:34:02;;;;;;;13.02;5.70;;;;;;;;;;5034565;28;20099;-66
2022/04/22 12:36:30;;;;;;;14.20;6.28;;;;;;;;;;5035837;28;20495;-65
2022/04/22 12:38:56;;;;;;;15.25;5.68;;;;;;;;;;5034790;28;20119;-71
2022/04/22 12:41:26;;;;;;;13.90;5.82;;;;;;;;;;5034738;28;20064;-72
2022/04/22 12:43:53;;;;;;;15.23;6.35;;;;;;;;;;5036333;28;20107;-67
2022/04/22 12:52:08;;;;;;;20.67;6.13;;;;;;;;;;5037107;28;20052;-66
2022/04/22 12:54:35;;;;;;;19.45;6.63;;;;;;;;;;5037067;28;20045;-68
2022/04/22 12:57:01;;;;;;;14.82;5.97;;;;;;;;;;5036412;28;20050;-67
2022/04/22 12:59:27;;;;;;;;;;;;;;;;;;5036244;28;20045;-66
2022/04/22 13:01:53;;;;;;;17.02;7.13;;;;;;;;;;5035866;28;19921;-66
2022/04/22 13:04:23;;;;;;;21.48;6.60;;;;;;;;;;5036166;28;20045;-66
2022/04/22 13:06:51;;;;;;;14.45;6.70;;;;;;;;;;5035480;28;20056;-68
2022/04/22 13:09:18;;;;;;;14.63;6.57;;;;;;;;;;5035736;28;20104;-66
2022/04/22 13:11:44;;;;;;;13.63;6.60;;;;;;;;;;5036079;28;20054;-68
2022/04/22 13:14:12;;;;;;;13.82;7.13;;;;;;;;;;5036068;28;20049;-68
2022/04/22 13:16:38;;;;;;;13.27;6.68;;;;;;;;;;5035113;28;20073;-65
2022/04/22 13:19:04;;;;;;;15.23;7.10;;;;;;;;;;5035566;28;20041;-67
2022/04/22 13:21:30;;;;;;;;;;;;;;;;;;5034387;28;20053;-70
2022/04/22 13:23:57;;;;;;;18.75;7.10;;;;;;;;;;5035452;28;19927;-67
2022/04/22 13:26:23;;;;;;;14.00;6.90;;;;;;;;;;5035381;28;20052;-63
2022/04/22 13:28:50;;;;;;;16.85;6.95;;;;;;;;;;5035234;28;20120;-73
2022/04/22 13:31:17;;;;;;;24.52;7.47;;;;;;;;;;5034951;28;20057;-77
2022/04/22 13:33:43;;;;;;;21.48;7.47;;;;;;;;;;5035711;28;20155;-75
2022/04/22 13:36:11;;;;;;;24.25;7.45;;;;;;;;;;5034870;28;20429;-81
2022/04/22 13:38:37;;;;;;;18.00;7.03;;;;;;;;;;5034921;28;20478;-69
2022/04/22 13:41:08;;;;;;;35.03;8.13;;;;;;;;;;5032336;28;20125;-64
2022/04/22 13:43:35;;;;;;;20.10;7.68;;;;;;;;;;5035374;28;20050;-65
2022/04/22 13:54:17;;;;;;;15.20;7.65;;;;;;;;;;5034014;28;20053;-80
2022/04/22 13:56:43;;;;;;;13.23;6.65;;;;;;;;;;5034635;28;20045;-68
2022/04/22 13:59:09;;;;;;;20.10;7.95;;;;;;;;;;5034154;28;20038;-71
2022/04/22 14:01:36;;;;;;;;;;;;;;;;;;5034711;28;20048;-79
2022/04/22 14:04:02;;;;;;;24.35;7.78;;;;;;;;;;5034404;28;19921;-74
2022/04/22 14:06:28;;;;;;;;;;;;;;;;;;5034805;28;20081;-73
2022/04/22 14:08:55;;;;;;;32.95;29.42;;;;;;;;;;5034457;28;20015;-68
2022/04/22 14:11:21;;;;;;;33.90;20.33;;;;;;;;;;5034522;28;20049;-72
2022/04/22 14:13:48;;;;;;;15.88;7.60;;;;;;;;;;5034656;28;20123;-77
2022/04/22 14:16:14;;;;;;;15.75;7.65;;;;;;;;;;5016558;28;20060;-75
2022/04/22 14:18:40;;;;;;;15.10;6.97;;;;;;;;;;5034496;28;20060;-68
2022/04/22 14:21:06;;;;;;;45.13;12.10;;;;;;;;;;5034104;28;20067;-70
2022/04/22 14:23:33;;;;;;;19.27;7.07;;;;;;;;;;5034458;28;20046;-73
2022/04/22 14:25:59;;;;;;;15.77;7.47;;;;;;;;;;5034647;28;20456;-69
2022/04/22 14:28:26;;;;;;;14.35;7.38;;;;;;;;;;5034221;28;20481;-64
2022/04/22 14:30:53;;;;;;;14.73;7.90;;;;;;;;;;5034600;28;20053;-65
2022/04/22 14:33:20;;;;;;;16.90;7.78;;;;;;;;;;5034861;28;20085;-68
2022/04/22 14:35:46;;;;;;;18.13;8.15;;;;;;;;;;5034651;28;20096;-72
2022/04/22 14:38:13;;;;;;;14.40;8.68;;;;;;;;;;5034984;28;20041;-73
2022/04/22 14:40:39;;;;;;;17.40;7.35;;;;;;;;;;5035341;28;20041;-74
2022/04/22 14:43:08;;;;;;;17.88;7.45;;;;;;;;;;5034759;28;20112;-71
2022/04/22 14:45:35;;;;;;;15.82;7.50;;;;;;;;;;5034095;28;20053;-71
2022/04/22 14:48:01;;;;;;;16.55;7.25;;;;;;;;;;5034095;28;20053;-70
2022/04/22 14:50:27;;;;;;;16.83;7.00;;;;;;;;;;5032591;28;20079;-67
2022/04/22 14:52:54;;;;;;;14.80;6.97;;;;;;;;;;5033842;28;20054;-75
2022/04/22 14:55:21;;;;;;;21.98;7.43;;;;;;;;;;5034297;28;20042;-75
2022/04/22 14:57:47;;;;;;;15.80;7.20;;;;;;;;;;5033125;28;20401;-64
2022/04/22 15:00:13;;;;;;;13.70;6.75;;;;;;;;;;5033847;28;20103;-76
2022/04/22 15:02:39;;;;;;;14.13;6.55;;;;;;;;;;5032577;28;20050;-72
2022/04/22 15:05:06;;;;;;;17.48;6.97;;;;;;;;;;5033609;28;20076;-81
2022/04/22 15:07:32;;;;;;;20.20;7.20;;;;;;;;;;5033600;28;20069;-74
2022/04/22 15:09:58;;;;;;;15.82;6.43;;;;;;;;;;5033890;28;20049;-82
2022/04/22 15:12:25;;;;;;;15.07;7.05;;;;;;;;;;5033687;28;20053;-76
2022/04/22 15:14:52;;;;;;;15.93;6.60;;;;;;;;;;5034024;28;20216;-79
2022/04/22 15:24:09;;;;;;;15.65;6.40;;;;;;;;;;5033559;28;20112;-80
2022/04/22 15:25:38;;;;;;;12.50;6.13;;;;;;;;;;5032888;28;20050;-72
2022/04/22 15:28:04;;;;;;;14.63;6.18;;;;;;;;;;5033135;28;20056;-71
2022/04/22 15:30:49;;;;;;;14.55;6.28;;;;;;;;;;5031486;28;20057;-71
2022/04/22 15:33:15;;;;;;;14.00;5.95;;;;;;;;;;5031723;28;20061;-71
2022/04/22 15:35:41;;;;;;;22.83;6.38;;;;;;;;;;5032017;28;20072;-74
2022/04/22 15:38:07;;;;;;;16.92;7.00;;;;;;;;;;5032427;28;20041;-70
2022/04/22 15:40:33;;;;;;;16.35;6.60;;;;;;;;;;5033210;28;20104;-71
2022/04/22 15:42:59;;;;;;;;;;;;;;;;;;5032917;28;20057;-74
2022/04/22 15:45:25;;;;;;;15.27;6.10;;;;;;;;;;5032768;28;19921;-74
2022/04/22 15:47:51;;;;;;;15.52;6.20;;;;;;;;;;5032588;28;20100;-71
2022/04/22 15:50:17;;;;;;;;;;;;;;;;;;5032797;28;20050;-72
2022/04/22 15:52:43;;;;;;;18.75;6.65;;;;;;;;;;5032273;28;19921;-80
2022/04/22 15:55:10;;;;;;;16.92;6.25;;;;;;;;;;5032397;28;20107;-74
2022/04/22 15:57:37;;;;;;;13.73;5.93;;;;;;;;;;5032833;28;20097;-77